createdAt,value
2019-05-20T00:01:23.294Z,10.20
2019-05-20T00:03:51.971Z,11.48
2019-05-20T00:06:20.591Z,11.33
2019-05-20T00:08:49.251Z,11.45
2019-05-20T00:11:17.870Z,12.35
2019-05-20T00:13:46.532Z,10.90
2019-05-20T00:16:15.150Z,10.30
2019-05-20T00:18:43.803Z,10.45
2019-05-20T00:21:12.464Z,10.00
2019-05-20T00:23:41.130Z,10.90
2019-05-20T00:26:09.837Z,10.40
2019-05-20T00:28:38.504Z,11.45
2019-05-20T00:31:07.166Z,11.22
2019-05-20T00:33:35.825Z,9.93
2019-05-20T00:36:04.610Z,10.08
2019-05-20T00:38:33.278Z,10.55
2019-05-20T00:41:01.884Z,10.23
2019-05-20T00:43:30.646Z,11.03
2019-05-20T00:45:59.259Z,10.90
2019-05-20T00:48:27.917Z,11.05
2019-05-20T00:50:56.751Z,10.75
2019-05-20T00:53:25.490Z,10.72
2019-05-20T00:55:54.151Z,10.23
2019-05-20T00:58:22.829Z,11.73
2019-05-20T01:00:51.489Z,10.75
2019-05-20T01:03:20.102Z,11.03
2019-05-20T01:05:48.762Z,11.97
2019-05-20T01:08:17.508Z,10.65
2019-05-20T01:10:46.167Z,11.10
2019-05-20T01:13:14.779Z,10.25
2019-05-20T01:15:43.809Z,10.28
2019-05-20T01:18:12.424Z,10.43
2019-05-20T01:20:41.156Z,11.00
2019-05-20T01:23:09.816Z,11.15
2019-05-20T01:25:38.426Z,10.72
2019-05-20T01:28:07.087Z,10.70
2019-05-20T01:30:35.751Z,10.13
2019-05-20T01:33:13.199Z,10.70
2019-05-20T01:35:34.757Z,10.48
2019-05-20T01:38:03.372Z,9.50
2019-05-20T01:40:32.028Z,10.82
2019-05-20T01:43:00.750Z,10.55
2019-05-20T01:45:29.362Z,10.82
2019-05-20T01:47:58.012Z,10.70
2019-05-20T01:50:26.680Z,10.23
2019-05-20T01:52:55.409Z,10.05
2019-05-20T01:55:24.028Z,10.15
2019-05-20T01:57:52.687Z,10.32
2019-05-20T02:00:21.466Z,12.45
2019-05-20T02:02:50.235Z,9.75
2019-05-20T02:05:19.148Z,10.13
2019-05-20T02:07:47.871Z,9.53
2019-05-20T02:10:17.590Z,9.73
2019-05-20T02:12:46.247Z,8.95
2019-05-20T02:15:15.865Z,9.80
2019-05-20T02:17:44.527Z,9.95
2019-05-20T02:20:13.398Z,9.95
2019-05-20T02:22:42.058Z,10.18
2019-05-20T02:25:11.181Z,10.13
2019-05-20T02:27:39.837Z,10.53
2019-05-20T02:30:09.481Z,10.45
2019-05-20T02:32:38.143Z,10.68
2019-05-20T02:35:07.736Z,10.35
2019-05-20T02:37:36.407Z,10.05
2019-05-20T02:40:09.073Z,10.40
2019-05-20T02:42:38.258Z,9.77
2019-05-20T02:45:10.309Z,9.88
2019-05-20T02:47:38.994Z,10.75
2019-05-20T02:50:07.977Z,10.13
2019-05-20T02:52:36.587Z,10.23
2019-05-20T02:55:07.389Z,10.00
2019-05-20T02:57:36.181Z,10.15
2019-05-20T03:00:07.693Z,10.68
2019-05-20T03:02:36.326Z,10.40
2019-05-20T03:05:06.247Z,11.18
2019-05-20T03:07:34.925Z,9.55
2019-05-20T03:10:04.834Z,12.23
2019-05-20T03:12:33.520Z,10.03
2019-05-20T03:15:02.823Z,10.15
2019-05-20T03:17:31.484Z,10.32
2019-05-20T03:20:00.127Z,10.88
2019-05-20T03:22:29.086Z,9.85
2019-05-20T03:24:57.710Z,10.00
2019-05-20T03:27:26.365Z,9.95
2019-05-20T03:29:55.043Z,10.48
2019-05-20T03:32:23.654Z,10.38
2019-05-20T03:34:59.336Z,10.63
2019-05-20T03:37:22.784Z,11.08
2019-05-20T03:39:51.531Z,10.50
2019-05-20T03:42:20.205Z,11.05
2019-05-20T03:44:48.879Z,11.08
2019-05-20T03:47:17.562Z,10.23
2019-05-20T03:49:46.231Z,10.45
2019-05-20T03:52:14.957Z,10.28
2019-05-20T03:54:43.608Z,9.45
2019-05-20T03:57:12.330Z,10.58
2019-05-20T03:59:40.942Z,10.28
2019-05-20T04:02:09.702Z,10.53
2019-05-20T04:04:38.489Z,10.40
2019-05-20T04:07:07.161Z,12.05
2019-05-20T04:09:35.768Z,11.18
2019-05-20T04:12:04.651Z,12.60
2019-05-20T04:14:33.319Z,9.95
2019-05-20T04:17:02.025Z,11.95
2019-05-20T04:19:30.743Z,10.88
2019-05-20T04:21:59.428Z,11.03
2019-05-20T04:24:28.099Z,10.95
2019-05-20T04:26:58.908Z,10.70
2019-05-20T04:29:27.717Z,11.05
2019-05-20T04:31:56.613Z,11.80
2019-05-20T04:34:25.270Z,11.57
2019-05-20T04:36:54.005Z,11.50
2019-05-20T04:39:22.619Z,10.93
2019-05-20T04:41:51.281Z,11.22
2019-05-20T04:44:20.066Z,11.15
2019-05-20T04:46:48.824Z,11.73
2019-05-20T04:49:17.439Z,11.93
2019-05-20T04:51:46.105Z,12.85
2019-05-20T04:54:14.725Z,10.88
2019-05-20T04:56:43.389Z,11.10
2019-05-20T04:59:12.045Z,11.22
2019-05-20T05:01:40.736Z,12.53
2019-05-20T05:04:09.353Z,11.65
2019-05-20T05:06:37.964Z,11.90
2019-05-20T05:09:07.275Z,11.70
2019-05-20T05:11:36.063Z,12.58
2019-05-20T05:14:05.035Z,12.10
2019-05-20T05:16:33.667Z,11.63
2019-05-20T05:19:02.334Z,12.13
2019-05-20T05:21:31.019Z,12.43
2019-05-20T05:23:59.798Z,11.78
2019-05-20T05:26:28.554Z,11.50
2019-05-20T05:28:57.215Z,10.75
2019-05-20T05:31:25.833Z,11.18
2019-05-20T05:33:54.593Z,10.88
2019-05-20T05:36:23.268Z,10.80
2019-05-20T05:38:51.923Z,10.75
2019-05-20T05:41:20.659Z,11.08
2019-05-20T05:43:49.324Z,10.78
2019-05-20T05:46:17.982Z,11.38
2019-05-20T05:48:46.650Z,10.20
2019-05-20T05:51:15.437Z,10.43
2019-05-20T05:53:44.085Z,10.48
2019-05-20T05:56:12.808Z,10.23
2019-05-20T05:58:41.473Z,9.95
2019-05-20T06:01:10.090Z,10.65
2019-05-20T06:03:38.844Z,10.40
2019-05-20T06:06:13.052Z,9.63
2019-05-20T06:08:38.162Z,9.53
2019-05-20T06:11:06.916Z,9.40
2019-05-20T06:13:35.661Z,9.93
2019-05-20T06:16:04.489Z,9.63
2019-05-20T06:18:33.178Z,8.90
2019-05-20T06:21:01.838Z,9.55
2019-05-20T06:23:30.654Z,9.28
2019-05-20T06:25:59.261Z,9.90
2019-05-20T06:28:27.920Z,9.45
2019-05-20T06:30:56.534Z,9.55
2019-05-20T06:33:25.194Z,9.53
2019-05-20T06:35:54.043Z,9.63
2019-05-20T06:38:22.776Z,10.82
2019-05-20T06:40:51.387Z,10.53
2019-05-20T06:43:20.141Z,10.20
2019-05-20T06:45:48.751Z,9.60
2019-05-20T06:48:17.414Z,10.08
2019-05-20T06:50:46.026Z,10.10
2019-05-20T06:53:14.697Z,9.98
2019-05-20T06:55:43.306Z,9.80
2019-05-20T06:58:12.015Z,10.23
2019-05-20T07:00:40.941Z,10.10
2019-05-20T07:03:09.833Z,9.83
2019-05-20T07:05:38.568Z,10.40
2019-05-20T07:08:07.349Z,11.03
2019-05-20T07:10:36.081Z,11.18
2019-05-20T07:13:04.892Z,10.25
2019-05-20T07:15:33.645Z,10.40
2019-05-20T07:18:02.309Z,10.75
2019-05-20T07:20:30.990Z,10.88
2019-05-20T07:22:59.745Z,11.40
2019-05-20T07:25:28.421Z,11.38
2019-05-20T07:27:57.257Z,10.53
2019-05-20T07:30:25.925Z,11.03
2019-05-20T07:32:54.581Z,9.85
2019-05-20T07:35:30.079Z,10.72
2019-05-20T07:37:53.653Z,9.78
2019-05-20T07:40:33.115Z,9.00
2019-05-20T07:43:02.618Z,9.10
2019-05-20T07:45:33.982Z,8.98
2019-05-20T07:48:04.602Z,8.53
2019-05-20T07:50:36.803Z,9.43
2019-05-20T07:53:07.475Z,9.05
2019-05-20T07:55:40.830Z,8.95
2019-05-20T07:58:10.175Z,8.50
2019-05-20T08:00:39.174Z,8.33
2019-05-20T08:03:07.837Z,7.72
2019-05-20T08:05:36.566Z,8.08
2019-05-20T08:08:05.323Z,8.05
2019-05-20T08:10:34.054Z,8.33
2019-05-20T08:13:02.747Z,7.90
2019-05-20T08:15:31.352Z,8.08
2019-05-20T08:18:00.011Z,8.43
2019-05-20T08:20:28.621Z,8.85
2019-05-20T08:22:57.287Z,8.68
2019-05-20T08:25:25.896Z,7.45
2019-05-20T08:27:54.557Z,7.83
2019-05-20T08:30:33.383Z,7.60
2019-05-20T08:33:02.479Z,7.08
2019-05-20T08:35:31.085Z,6.47
2019-05-20T08:37:59.856Z,6.70
2019-05-20T08:40:28.549Z,7.12
2019-05-20T08:42:57.433Z,6.12
2019-05-20T08:45:26.036Z,6.10
2019-05-20T08:47:54.804Z,6.50
2019-05-20T08:50:23.481Z,6.42
2019-05-20T08:52:52.168Z,6.37
2019-05-20T08:55:20.798Z,5.90
2019-05-20T08:57:49.685Z,6.20
2019-05-20T09:00:23.465Z,6.28
2019-05-20T09:02:52.339Z,6.33
2019-05-20T09:05:21.031Z,6.70
2019-05-20T09:08:02.395Z,6.28
2019-05-20T09:10:20.435Z,5.95
2019-05-20T09:12:49.145Z,6.58
2019-05-20T09:15:18.272Z,6.33
2019-05-20T09:17:46.936Z,6.10
2019-05-20T09:20:15.890Z,6.05
2019-05-20T09:22:44.548Z,7.17
2019-05-20T09:25:14.755Z,7.05
2019-05-20T09:27:43.819Z,7.08
2019-05-20T09:30:14.761Z,7.00
2019-05-20T09:32:43.911Z,6.40
2019-05-20T09:35:12.842Z,6.95
2019-05-20T09:37:42.298Z,7.20
2019-05-20T09:40:12.759Z,6.85
2019-05-20T09:42:41.531Z,6.78
2019-05-20T09:45:10.547Z,7.05
2019-05-20T09:47:39.292Z,6.92
2019-05-20T09:50:08.326Z,7.15
2019-05-20T09:52:36.943Z,7.58
2019-05-20T09:55:08.997Z,6.65
2019-05-20T09:57:37.779Z,6.83
2019-05-20T10:00:08.462Z,7.03
2019-05-20T10:02:38.385Z,7.20
2019-05-20T10:05:07.518Z,7.90
2019-05-20T10:07:36.138Z,7.10
2019-05-20T10:10:06.980Z,6.97
2019-05-20T10:12:46.101Z,7.47
2019-05-20T10:15:07.687Z,7.42
2019-05-20T10:17:36.412Z,7.05
2019-05-20T10:20:08.451Z,6.90
2019-05-20T10:22:37.061Z,7.60
2019-05-20T10:25:08.824Z,6.12
2019-05-20T10:27:37.523Z,6.58
2019-05-20T10:30:08.367Z,7.22
2019-05-20T10:32:36.968Z,6.97
2019-05-20T10:35:07.057Z,7.25
2019-05-20T10:37:35.754Z,6.42
2019-05-20T10:40:05.703Z,6.25
2019-05-20T10:42:34.387Z,6.83
2019-05-20T10:45:04.436Z,6.30
2019-05-20T10:47:33.095Z,6.15
2019-05-20T10:50:01.799Z,7.00
2019-05-20T10:52:30.497Z,6.90
2019-05-20T10:54:59.223Z,5.92
2019-05-20T10:57:27.888Z,5.62
2019-05-20T10:59:56.550Z,6.28
2019-05-20T11:02:25.214Z,6.35
2019-05-20T11:04:53.828Z,6.65
2019-05-20T11:07:22.435Z,7.33
2019-05-20T11:09:51.093Z,6.67
2019-05-20T11:12:19.750Z,6.35
2019-05-20T11:14:48.407Z,6.75
2019-05-20T11:17:17.134Z,6.85
2019-05-20T11:19:45.802Z,6.17
2019-05-20T11:22:14.412Z,6.45
2019-05-20T11:24:43.095Z,7.95
2019-05-20T11:27:11.757Z,6.85
2019-05-20T11:29:40.411Z,6.33
2019-05-20T11:32:09.151Z,7.12
2019-05-20T11:34:37.978Z,6.85
2019-05-20T11:37:06.742Z,7.20
2019-05-20T11:39:35.387Z,6.92
2019-05-20T11:42:04.266Z,7.83
2019-05-20T11:44:32.959Z,6.95
2019-05-20T11:47:01.636Z,7.78
2019-05-20T11:49:30.255Z,6.67
2019-05-20T11:51:58.914Z,6.05
2019-05-20T11:54:27.585Z,6.40
2019-05-20T11:56:56.271Z,6.22
2019-05-20T11:59:25.001Z,6.60
2019-05-20T12:01:53.617Z,7.15
2019-05-20T12:04:22.373Z,7.20
2019-05-20T12:06:50.990Z,7.10
2019-05-20T12:09:19.778Z,6.62
2019-05-20T12:11:48.432Z,7.03
2019-05-20T12:14:17.090Z,6.40
2019-05-20T12:16:45.750Z,6.70
2019-05-20T12:19:14.363Z,6.20
2019-05-20T12:21:43.022Z,6.37
2019-05-20T12:24:11.659Z,6.33
2019-05-20T12:26:40.343Z,6.42
2019-05-20T12:29:08.958Z,6.78
2019-05-20T12:31:37.623Z,7.40
2019-05-20T12:34:06.301Z,6.78
2019-05-20T12:36:34.923Z,6.45
2019-05-20T12:39:04.623Z,7.80
2019-05-20T12:41:33.348Z,6.75
2019-05-20T12:44:12.045Z,6.20
2019-05-20T12:46:32.598Z,6.25
2019-05-20T12:49:02.287Z,6.55
2019-05-20T12:51:31.158Z,6.37
2019-05-20T12:53:59.809Z,6.45
2019-05-20T12:56:28.414Z,6.45
2019-05-20T12:58:57.160Z,6.35
2019-05-20T13:01:25.906Z,7.37
2019-05-20T13:03:54.516Z,6.35
2019-05-20T13:06:23.142Z,6.92
2019-05-20T13:08:51.932Z,7.00
2019-05-20T13:11:20.691Z,6.17
2019-05-20T13:13:49.348Z,6.78
2019-05-20T13:16:18.042Z,6.58
2019-05-20T13:18:55.294Z,7.08
2019-05-20T13:21:17.090Z,6.70
2019-05-20T13:23:48.758Z,6.80
2019-05-20T13:26:16.090Z,6.78
2019-05-20T13:28:44.843Z,6.58
2019-05-20T13:31:14.112Z,6.58
2019-05-20T13:33:44.264Z,7.22
2019-05-20T13:36:13.282Z,6.58
2019-05-20T13:38:42.797Z,6.60
2019-05-20T13:41:12.670Z,6.80
2019-05-20T13:43:43.814Z,7.97
2019-05-20T13:46:12.480Z,6.75
2019-05-20T13:48:41.163Z,6.45
2019-05-20T13:51:09.920Z,6.22
2019-05-20T13:53:38.651Z,10.08
2019-05-20T13:56:07.284Z,6.72
2019-05-20T13:58:35.956Z,6.10
2019-05-20T14:01:05.969Z,5.78
2019-05-20T14:03:35.854Z,6.95
2019-05-20T14:06:07.584Z,7.30
2019-05-20T14:08:36.314Z,13.43
2019-05-20T14:28:55.636Z,3.33
2019-05-20T14:31:24.303Z,3.30
2019-05-20T14:33:52.929Z,3.90
2019-05-20T14:36:38.577Z,4.08
2019-05-20T14:38:52.035Z,4.45
2019-05-20T14:41:22.208Z,4.78
2019-05-20T14:43:51.132Z,5.90
2019-05-20T14:46:19.802Z,2.67
2019-05-20T14:48:48.502Z,3.58
2019-05-20T14:51:17.292Z,3.47
2019-05-20T14:53:45.951Z,4.67
2019-05-20T14:56:14.629Z,4.78
2019-05-20T14:58:43.293Z,9.58
2019-05-20T15:01:12.037Z,7.50
2019-05-20T15:03:40.727Z,6.90
2019-05-20T15:06:10.052Z,9.08
2019-05-20T15:08:38.813Z,7.08
2019-05-20T15:11:07.499Z,5.20
2019-05-20T15:13:36.165Z,5.83
2019-05-20T15:16:04.774Z,4.35
2019-05-20T15:18:33.440Z,6.45
2019-05-20T15:21:02.104Z,5.40
2019-05-20T15:23:31.562Z,4.37
2019-05-20T15:26:00.229Z,3.92
2019-05-20T15:28:28.916Z,4.05
2019-05-20T15:30:58.599Z,5.25
2019-05-20T15:33:27.262Z,3.92
2019-05-20T15:35:55.880Z,5.97
2019-05-20T15:38:24.543Z,4.12
2019-05-20T15:40:53.168Z,4.80
2019-05-20T15:43:21.897Z,3.85
2019-05-20T15:45:50.564Z,4.15
2019-05-20T15:48:19.225Z,4.22
2019-05-20T15:50:47.885Z,4.53
2019-05-20T15:53:16.500Z,3.85
2019-05-20T15:55:45.171Z,3.72
2019-05-20T15:58:13.866Z,4.22
2019-05-20T16:00:42.556Z,4.35
2019-05-20T16:03:11.168Z,4.65
2019-05-20T16:05:39.898Z,4.67
2019-05-20T16:08:08.508Z,5.03
2019-05-20T16:10:37.173Z,4.97
2019-05-20T16:13:05.880Z,5.37
2019-05-20T16:15:34.585Z,5.22
2019-05-20T16:18:03.485Z,6.10
2019-05-20T16:20:32.314Z,5.92
2019-05-20T16:23:00.930Z,6.20
2019-05-20T16:25:29.659Z,6.30
2019-05-20T16:27:58.410Z,6.12
2019-05-20T16:30:27.197Z,7.15
2019-05-20T16:32:55.953Z,7.17
2019-05-20T16:35:24.568Z,7.58
2019-05-20T16:37:53.229Z,8.60
2019-05-20T16:40:22.149Z,8.00
2019-05-20T16:42:50.805Z,7.95
2019-05-20T16:45:19.834Z,7.92
2019-05-20T16:47:48.620Z,8.50
2019-05-20T16:50:19.144Z,9.65
2019-05-20T16:52:47.935Z,8.93
2019-05-20T16:55:16.726Z,10.65
2019-05-20T16:57:45.414Z,9.05
2019-05-20T17:00:30.692Z,9.23
2019-05-20T17:02:45.451Z,8.65
2019-05-20T17:05:14.724Z,8.73
2019-05-20T17:07:43.337Z,8.28
2019-05-20T17:10:12.613Z,8.23
2019-05-20T17:12:41.247Z,7.45
2019-05-20T17:15:10.279Z,8.45
2019-05-20T17:17:38.965Z,7.35
2019-05-20T17:20:08.747Z,7.37
2019-05-20T17:22:37.429Z,7.10
2019-05-20T17:25:09.323Z,7.37
2019-05-20T17:27:38.007Z,8.25
2019-05-20T17:30:08.154Z,7.58
2019-05-20T17:32:36.875Z,8.05
2019-05-20T17:35:05.979Z,8.33
2019-05-20T17:37:34.615Z,8.28
2019-05-20T17:40:05.283Z,8.15
2019-05-20T17:42:33.987Z,8.53
2019-05-20T17:45:02.924Z,9.23
2019-05-20T17:47:31.598Z,10.10
2019-05-20T17:50:00.315Z,9.33
2019-05-20T17:52:28.933Z,11.25
2019-05-20T17:54:57.596Z,9.40
2019-05-20T17:57:26.295Z,9.68
2019-05-20T17:59:54.974Z,8.90
2019-05-20T18:02:23.744Z,9.28
2019-05-20T18:04:52.361Z,8.63
2019-05-20T18:07:20.976Z,9.63
2019-05-20T18:09:49.699Z,9.55
2019-05-20T18:12:18.362Z,9.13
2019-05-20T18:14:47.073Z,9.03
2019-05-20T18:17:15.758Z,9.38
2019-05-20T18:19:44.486Z,9.03
2019-05-20T18:22:13.146Z,8.85
2019-05-20T18:24:41.764Z,7.75
2019-05-20T18:27:10.502Z,8.38
2019-05-20T18:29:39.162Z,9.48
2019-05-20T18:32:07.875Z,9.65
2019-05-20T18:34:36.539Z,9.30
2019-05-20T18:37:05.205Z,8.80
2019-05-20T18:39:33.818Z,9.33
2019-05-20T18:42:02.523Z,9.43
2019-05-20T18:44:31.141Z,9.63
2019-05-20T18:46:59.907Z,9.50
2019-05-20T18:49:28.584Z,10.72
2019-05-20T18:51:58.261Z,10.00
2019-05-20T18:54:26.896Z,10.20
2019-05-20T18:56:55.587Z,9.83
2019-05-20T18:59:24.263Z,9.68
2019-05-20T19:02:04.529Z,10.00
2019-05-20T19:04:23.318Z,9.83
2019-05-20T19:06:52.148Z,9.25
2019-05-20T19:09:20.768Z,9.95
2019-05-20T19:11:49.429Z,9.18
2019-05-20T19:14:18.118Z,8.95
2019-05-20T19:16:46.789Z,9.15
2019-05-20T19:19:15.523Z,8.88
2019-05-20T19:21:44.186Z,8.83
2019-05-20T19:24:12.939Z,8.65
2019-05-20T19:26:41.787Z,8.10
2019-05-20T19:29:10.449Z,8.15
2019-05-20T19:31:39.128Z,8.05
2019-05-20T19:34:07.802Z,7.90
2019-05-20T19:36:36.457Z,8.88
2019-05-20T19:39:07.730Z,8.30
2019-05-20T19:41:36.519Z,7.12
2019-05-20T19:44:05.205Z,7.42
2019-05-20T19:46:33.890Z,7.55
2019-05-20T19:49:02.581Z,8.15
2019-05-20T19:51:31.246Z,7.80
2019-05-20T19:53:59.949Z,8.20
2019-05-20T19:56:28.632Z,7.37
2019-05-20T19:58:57.528Z,8.30
2019-05-20T20:01:26.195Z,10.00
2019-05-20T20:03:54.807Z,7.90
2019-05-20T20:06:23.481Z,7.83
2019-05-20T20:08:52.270Z,7.90
2019-05-20T20:11:20.886Z,8.08
2019-05-20T20:13:49.644Z,7.92
2019-05-20T20:16:18.418Z,8.10
2019-05-20T20:18:47.099Z,8.23
2019-05-20T20:21:15.715Z,7.83
2019-05-20T20:23:44.388Z,7.95
2019-05-20T20:26:13.004Z,6.97
2019-05-20T20:28:41.669Z,7.75
2019-05-20T20:31:11.035Z,7.85
2019-05-20T20:33:39.953Z,7.45
2019-05-20T20:36:08.612Z,7.70
2019-05-20T20:38:37.226Z,7.37
2019-05-20T20:41:05.908Z,6.97
2019-05-20T20:43:34.595Z,7.40
2019-05-20T20:46:03.328Z,8.40
2019-05-20T20:48:32.073Z,7.78
2019-05-20T20:51:00.753Z,8.48
2019-05-20T20:53:29.418Z,7.97
2019-05-20T20:55:58.040Z,7.42
2019-05-20T20:58:26.699Z,7.20
2019-05-20T21:00:55.364Z,7.58
2019-05-20T21:03:24.086Z,7.85
2019-05-20T21:05:52.767Z,7.28
2019-05-20T21:08:21.426Z,7.97
2019-05-20T21:10:50.039Z,8.40
2019-05-20T21:13:18.726Z,7.90
2019-05-20T21:15:47.350Z,7.85
2019-05-20T21:18:16.053Z,7.62
2019-05-20T21:20:44.707Z,8.90
2019-05-20T21:23:13.433Z,7.62
2019-05-20T21:25:42.044Z,8.25
2019-05-20T21:28:10.713Z,8.38
2019-05-20T21:30:39.429Z,8.40
2019-05-20T21:33:09.653Z,8.08
2019-05-20T21:35:38.512Z,8.18
2019-05-20T21:38:07.241Z,7.42
2019-05-20T21:40:35.854Z,8.40
2019-05-20T21:43:04.519Z,8.20
2019-05-20T21:45:33.133Z,8.38
2019-05-20T21:48:01.798Z,7.95
2019-05-20T21:50:30.476Z,7.55
2019-05-20T21:52:59.195Z,7.85
2019-05-20T21:55:27.927Z,7.35
2019-05-20T21:57:56.590Z,8.00
2019-05-20T22:00:25.200Z,7.37
2019-05-20T22:02:53.882Z,7.85
2019-05-20T22:05:22.500Z,7.78
2019-05-20T22:07:51.324Z,7.65
2019-05-20T22:10:19.992Z,8.48
2019-05-20T22:12:48.774Z,8.70
2019-05-20T22:15:17.429Z,7.22
2019-05-20T22:17:46.042Z,7.62
2019-05-20T22:20:15.014Z,8.03
2019-05-20T22:22:43.624Z,7.33
2019-05-20T22:25:13.595Z,7.62
2019-05-20T22:27:42.283Z,7.70
2019-05-20T22:30:11.713Z,7.45
2019-05-20T22:32:40.388Z,7.87
2019-05-20T22:35:09.138Z,7.12
2019-05-20T22:37:37.822Z,7.67
2019-05-20T22:40:07.956Z,7.12
2019-05-20T22:42:36.644Z,8.30
2019-05-20T22:45:06.200Z,7.03
2019-05-20T22:47:34.946Z,7.53
2019-05-20T22:50:04.814Z,6.90
2019-05-20T22:52:33.558Z,7.00
2019-05-20T22:55:02.234Z,7.45
2019-05-20T22:57:30.897Z,7.97
2019-05-20T22:59:59.609Z,7.00
2019-05-20T23:02:28.268Z,6.83
2019-05-20T23:05:08.946Z,6.45
2019-05-20T23:07:37.609Z,8.48
2019-05-20T23:10:07.859Z,7.05
2019-05-20T23:12:36.523Z,6.87
2019-05-20T23:15:09.090Z,6.37
2019-05-20T23:17:37.751Z,7.62
2019-05-20T23:20:09.844Z,7.20
2019-05-20T23:22:38.571Z,6.53
2019-05-20T23:25:07.399Z,6.53
2019-05-20T23:27:36.146Z,7.42
2019-05-20T23:30:07.087Z,7.67
2019-05-20T23:32:35.755Z,6.30
2019-05-20T23:35:06.303Z,6.10
2019-05-20T23:37:34.989Z,5.75
2019-05-20T23:40:06.851Z,6.42
2019-05-20T23:42:35.516Z,6.33
2019-05-20T23:45:09.139Z,6.60
2019-05-20T23:47:37.821Z,6.15
2019-05-20T23:50:06.919Z,6.70
2019-05-20T23:52:35.605Z,6.95
2019-05-20T23:55:07.574Z,6.87
2019-05-20T23:57:36.186Z,6.95
